Pagrindinis puslapis
METAR-TAF:

METAR-TAF

Oro uostai :

Jekaterinburgas, Rusija

platuma: 56-50N, ilguma: 060-38E, Aukštis: 237 m

Dabartinis oras

Ataskaita buvo paskelbta 29 minutes, ne 14:30 UTC
Vėjas 6 kt iš Šiaurės Rytų, svyruoja nuo Šiaurės/Šiaurės Rytų ir Rytų
Temperatūra 5°C
Drėgmė 38%
Slėgis 1011 hPa
Matomumas 10 km arba daugiau
nėra debesų žemiau 1500 m ir nėra kamuolinių lietaus debesų

METAR: USSS 141430Z 05003MPS 030V090 CAVOK 05/M08 Q1011 R26L/010060 NOSIG RMK QFE737/0983

Laikas: 19:59 (14:59 UTC)

Prognozė

Ataskaita buvo paskelbta 1 valandą ir 2 minutes, ne 13:57 UTC
Prognozė galioja nuo 14 metu 15 UTC su 15 metu 15 UTC
Vėjas 6 kt iš Vakarų/Šiaurės Vakarų su gūsio iki 16 kt
Matomumas: 6000 m
Išsisklaidę debesys ne aukštis 2000 ft
Nuo 15 metu 0400 UTC
Vėjas 6 kt iš Pietų/Pietvakarių su gūsio iki 23 kt
Matomumas 10 km arba daugiau
Išsisklaidę debesys ne aukštis 4000 ft

TAF: USSS 141357Z 1415/1515 30003G08MPS 6000 SCT020 FM150400 20003G12MPS 9999 SCT040

Orai ataskaitas ir orų prognozės (METAR, TAF).

turimą stotys yra geltonos ir raudonos taškus žemėlapyje.

Perkelti pele per norėdami pamatyti stoties vardą.

Tada spustelėkite, norėdami matyti oro stebėjimo ir prognozės.

Norėdami pakeisti žemėlapį: spustelėkite ant žalios mygtukų su juodo kryžiaus žemyn,; žalią mygtuką su brūkšneliu, jei norite nutolinti; arba žalių rodyklių gretimoms žemėlapius.


METAR-TAF: